Südanflug-Wetter

Südanflüge sind sowohl am Euroairport Basel-Mulhouse-Freiburg als auch am Flughafen Unique Zürich ein Thema für die Anwohner. In Basel hängen Südanflüge von den Windverhältnissen ab. Für den Euroairport Basel-Mulhouse-Freiburg bereitet MeteoNews deshalb aktuelle Winddaten auf, die direkt auf der Homepage des Flughafens eingebunden werden. Angaben zum Flughafen Zürich finden Sie hier.

In Zürich sind Südanflüge auf die Piste 34 möglich, wenn die horizontale Sichtweite mindestens 750 m beträgt und die Wolkenuntergrenze im Anflugsektor nicht tiefer als 300 Fuss (knapp 100 m) liegt (diese Werte gelten seit dem 1. November 2004).

Prognose für Südanflüge

Am Donnerstag sind Südanflüge möglich.
(Prognose ohne Gewähr. Die Vorhersage wird mehrmals täglich aktualisiert. Verantwortlicher Meteorologe: Roger Perret, 22.11.2017 15:18)

Analyse der letzten METAR-Messungen

Unser Tool wertet die letzten 20 offiziellen Wettermeldungen (METAR) des Flughafens Zürich aus und entscheidet aufgrund der beiden Werte für Sichtweite und Ceiling (Hauptwolkenuntergrenze), ob Südanflüge nach obiger Definition möglich wären. Allerdings repräsentiert der Wert für die Wolkenuntergrenze in der METAR-Meldung nicht die Bewölkung im Anflugsektor sondern generell um den Flughafen. Da über die Bewölkung im Anflugsektor kurzfristig aufgrund von Beobachtungen des Towers und von Piloten entschieden wird, kann die Angabe unseres Tools in gewissen Fällen von den realen Entscheiden der Flugsicherung abweichen.

Südanflüge Datum Uhrzeit Sichtweite Ceiling Vollständige METAR-Meldung
möglich 2017-11-23 04:20:00 > 10 km LSZH 230320Z 13003KT CAVOK M00/M02 Q1013 NOSIG
möglich 2017-11-23 03:50:00 > 10 km LSZH 230250Z 14004KT CAVOK M00/M00 Q1013 NOSIG
möglich 2017-11-23 03:20:00 > 10 km LSZH 230220Z 17004KT CAVOK M01/M02 Q1012 NOSIG
möglich 2017-11-23 02:50:00 > 10 km LSZH 230150Z 13004KT CAVOK M00/M01 Q1012 NOSIG
möglich 2017-11-23 02:20:00 > 10 km LSZH 230120Z VRB03KT CAVOK M01/M02 Q1012 NOSIG
möglich 2017-11-23 01:50:00 > 10 km LSZH 230050Z 13004KT CAVOK M01/M01 Q1012 NOSIG
möglich 2017-11-23 00:50:00 > 10 km LSZH 222350Z 11003KT 9999 MIFG NSC M00/M01 Q1012 NOSIG
möglich 2017-11-23 00:20:00 > 10 km LSZH 222320Z 00000KT 9999 MIFG NSC 01/00 Q1012 NOSIG
möglich 2017-11-22 23:50:00 > 10 km LSZH 222250Z 16005KT 9999 MIFG NSC 01/00 Q1013 NOSIG
möglich 2017-11-22 23:20:00 > 10 km LSZH 222220Z 18003KT 150V210 9999 MIFG NSC 00/M01 Q1012 NOSIG
möglich 2017-11-22 22:50:00 > 10 km LSZH 222150Z 13002KT 9999 MIFG NSC 00/M01 Q1013 NOSIG
möglich 2017-11-22 22:20:00 > 10 km LSZH 222120Z 00000KT 9999 MIFG NSC 01/00 Q1013 NOSIG
möglich 2017-11-22 21:50:00 > 10 km LSZH 222050Z VRB01KT CAVOK 01/M00 Q1013 NOSIG
möglich 2017-11-22 21:20:00 > 10 km LSZH 222020Z 00000KT CAVOK 01/M00 Q1013 NOSIG
möglich 2017-11-22 20:50:00 > 10 km LSZH 221950Z 00000KT CAVOK 03/01 Q1012 NOSIG
möglich 2017-11-22 20:20:00 > 10 km LSZH 221920Z 32003KT CAVOK 04/02 Q1013 NOSIG
möglich 2017-11-22 19:50:00 > 10 km LSZH 221850Z VRB02KT CAVOK 03/01 Q1013 NOSIG
möglich 2017-11-22 19:20:00 > 10 km LSZH 221820Z VRB01KT CAVOK 05/02 Q1013 NOSIG
möglich 2017-11-22 18:50:00 > 10 km LSZH 221750Z 00000KT CAVOK 05/02 Q1013 NOSIG
möglich 2017-11-22 18:20:00 > 10 km LSZH 221720Z 00000KT CAVOK 06/02 Q1013 NOSIG